x

Buzzards Bay, Ma (buzm3) Weather Station

12:00 - Tue 6th Dec 2016 All times are EST. -5 hours from GMT.

  • Wind
    32mph, 36mph gusts
  • Ar Temp 43°f
  • Sea Pressure 1016.2mb
  • Buzzards Bay, Ma
  • Buzzards Bay, Ma

More Historic Weather Station data

Upgrade to MSW Pro to gain access to the past 30 days of data for over 8000 Wavebouys and Weather Stations around the globe.

Join Pro

Comparision Forecast

View Surf forecast
   
Ter 12/06 12:00 32 36 mph 1016.2mb 43f
Seg 12/05 11:00 33 38 mph 1016.1mb 44f
10:00 30 32 mph 1015.9mb 43f
9:00 25 26 mph 1015.2mb 43f
8:00 24 26 mph 1015mb 42f
7:00 22 25 mph 1014.6mb 43f
6:00 18 20 mph 1015.1mb 42f
5:00 17 18 mph 1014.9mb 42f
4:00 21 24 mph 1014.3mb 43f
3:00 22 24 mph 1013.8mb 44f
2:00 21 22 mph 1013mb 44f
1:00 16 18 mph 1013mb 45f
12:00 22 24 mph 1013.7mb 46f
11:00 23 25 mph 1015.3mb 45f
10:00 21 22 mph 1016.9mb 44f
9:00 15 17 mph 1016.9mb 44f
8:00 18 20 mph 1017.7mb 42f
7:00 16 17 mph 1017.4mb 41f
6:00 10 13 mph 1018.4mb 41f
5:00 16 20 mph 1019.5mb 43f
4:00 7 9 mph 1020.4mb 40f
3:00 8 9 mph 1020.1mb 39f
2:00 8 9 mph 1021.1mb 38f
1:00 11 13 mph 1020.9mb 38f
12:00 11 14 mph 1021.5mb 37f
Dom 12/04 11:00 15 16 mph 1021.8mb 37f
10:00 13 14 mph 1022.5mb 38f
9:00 10 11 mph 1022.9mb 39f
8:00 9 11 mph 1023.2mb 40f
7:00 8 10 mph 1023mb 40f
6:00 7 8 mph 1022.7mb 40f
5:00 10
mph
1022.3mb 40f
4:00 11 14 mph 1022mb 40f
3:00 10 13 mph 1022.1mb 39f
2:00 9 11 mph 1021.7mb 38f
1:00 11 13 mph 1021.7mb 38f
12:00 10 13 mph 1021.9mb 37f
11:00 11 15 mph 1022.1mb 36f
10:00 17 18 mph 1022.6mb 36f
9:00 15 18 mph 1022.1mb 36f
8:00 14 16 mph 1021.9mb 36f
7:00 17 20 mph 1021.3mb 36f
6:00 20 22 mph 1021mb 36f
5:00 24 26 mph 1020.5mb 37f
4:00 23 28 mph 1020.6mb 36f
3:00 23 25 mph 1020.4mb 37f
2:00 24 28 mph 1020.1mb 37f
1:00 20 22 mph 1019.3mb 37f
12:00 22 24 mph 1018.9mb 38f
Sáb 12/03 11:00 22 25 mph 1017.9mb 39f
10:00 29 33 mph 1017mb 40f
9:00 28 30 mph 1017mb 41f
8:00 26 32 mph 1016.9mb 42f
7:00 24 28 mph 1016.6mb 42f
6:00 26 30 mph 1016.2mb 43f
5:00 25 29 mph 1015mb 43f
4:00 26 30 mph 1013.9mb 43f
3:00 33 37 mph 1013mb 44f
2:00 30 33 mph 1012mb 45f
1:00 24 26 mph 1011.9mb 44f
12:00 28 31 mph 1012.2mb 44f
11:00 25 28 mph 1012mb 43f
10:00 26 30 mph 1012.1mb 42f
9:00 30 34 mph 1011.4mb 41f
8:00 29 32 mph 1011mb 42f
7:00 33 37 mph 1010.3mb 41f
6:00 36 40 mph 1009.7mb 41f
5:00 33 39 mph 1009.3mb 41f
4:00 30 34 mph 1009mb 42f
3:00 33 38 mph 1008.9mb 43f
2:00 28 31 mph 1008.8mb 43f
1:00 34 40 mph 1008mb 44f
12:00 31 34 mph 1008.4mb 44f
Sex 12/02 11:00 30 33 mph 1008.8mb 45f
10:00 29 33 mph 1008.5mb 46f
9:00 28 31 mph 1008.3mb 47f
8:00 24 28 mph 1008.7mb 48f
7:00 20 22 mph 1009.2mb 49f
6:00 21 24 mph 1009.1mb 49f
5:00 22 25 mph 1009mb 49f
4:00 14 15 mph 1009mb 49f
3:00 18 20 mph 1008.7mb 49f
2:00 22 24 mph 1008.2mb 49f
1:00 18 21 mph 1008.7mb 49f
12:00 16 18 mph 1009.3mb 47f
11:00 21 22 mph 1009.8mb 45f
10:00 22 24 mph 1010.4mb 44f
9:00 26 30 mph 1010.2mb 44f
8:00 25 28 mph 1010.2mb 43f
7:00 24 26 mph 1009.7mb 43f